createdAt,value
2018-07-29T10:53:24.317Z,4.50
2018-07-29T10:55:51.471Z,3.87
2018-07-29T10:58:18.634Z,3.63
2018-07-29T11:00:47.789Z,4.80
2018-07-29T11:04:49.807Z,4.50
2018-07-29T11:07:16.989Z,5.50
2018-07-29T11:09:44.212Z,5.10
2018-07-29T11:12:11.400Z,4.87
2018-07-29T11:14:38.552Z,5.30
2018-07-29T11:17:05.791Z,4.83
2018-07-29T11:19:32.968Z,5.03
2018-07-29T11:22:00.188Z,5.07
2018-07-29T11:24:27.496Z,5.30
2018-07-29T11:26:54.765Z,5.13
2018-07-29T11:29:21.965Z,5.10
2018-07-29T11:31:49.317Z,4.83
2018-07-29T11:34:16.449Z,5.90
2018-07-29T11:36:43.627Z,5.13
2018-07-29T11:39:11.228Z,5.33
2018-07-29T11:41:38.420Z,5.20
2018-07-29T11:44:06.045Z,5.53
2018-07-29T11:46:33.381Z,6.23
2018-07-29T11:49:00.626Z,5.43
2018-07-29T11:51:27.739Z,5.67
2018-07-29T11:53:54.895Z,5.90
2018-07-29T11:56:22.109Z,5.17
2018-07-29T11:58:49.311Z,5.57
2018-07-29T12:01:16.517Z,5.70
2018-07-29T12:03:43.676Z,5.30
2018-07-29T12:06:10.890Z,5.73
2018-07-29T12:08:38.038Z,5.83
2018-07-29T12:11:05.280Z,6.10
2018-07-29T12:13:32.501Z,5.63
2018-07-29T12:15:59.701Z,4.97
2018-07-29T12:18:26.955Z,6.10
2018-07-29T12:20:54.113Z,5.43
2018-07-29T12:23:21.234Z,5.07
2018-07-29T12:25:48.381Z,6.63
2018-07-29T12:28:15.549Z,5.80
2018-07-29T12:30:42.837Z,6.50
2018-07-29T12:33:10.006Z,5.97
2018-07-29T12:35:37.192Z,6.47
2018-07-29T12:38:04.447Z,5.93
2018-07-29T12:40:31.671Z,5.73
2018-07-29T12:42:58.854Z,5.73
2018-07-29T12:45:26.022Z,5.90
2018-07-29T12:47:53.236Z,6.47
2018-07-29T12:50:20.460Z,5.70
2018-07-29T12:52:47.727Z,6.20
2018-07-29T12:55:14.946Z,5.73
2018-07-29T12:57:42.136Z,5.90
2018-07-29T13:00:09.307Z,5.70
2018-07-29T13:02:36.484Z,6.03
2018-07-29T13:05:03.926Z,5.43
2018-07-29T13:07:31.074Z,5.70
2018-07-29T13:09:58.320Z,5.77
2018-07-29T13:12:25.475Z,6.40
2018-07-29T13:14:52.641Z,5.70
2018-07-29T13:17:19.829Z,5.30
2018-07-29T13:19:47.308Z,5.67
2018-07-29T13:22:14.605Z,6.13
2018-07-29T13:24:41.984Z,6.37
2018-07-29T13:27:09.172Z,5.10
2018-07-29T13:29:36.475Z,5.10
2018-07-29T13:32:03.671Z,6.27
2018-07-29T13:34:30.881Z,6.13
2018-07-29T13:36:58.121Z,5.20
2018-07-29T13:41:59.450Z,5.53
2018-07-29T13:44:26.625Z,4.93
2018-07-29T13:46:53.857Z,5.73
2018-07-29T13:49:21.051Z,5.23
2018-07-29T13:51:48.134Z,4.67
2018-07-29T13:54:15.357Z,6.60
2018-07-29T13:56:42.540Z,6.00
2018-07-29T13:59:09.764Z,6.03
2018-07-29T14:01:37.099Z,6.20
2018-07-29T14:04:04.312Z,6.00
2018-07-29T14:06:31.525Z,5.97
2018-07-29T14:08:58.713Z,5.43
2018-07-29T14:11:26.321Z,6.30
2018-07-29T14:13:53.591Z,6.00
2018-07-29T14:16:20.817Z,5.70
2018-07-29T14:18:47.976Z,5.40
2018-07-29T14:21:15.157Z,5.63
2018-07-29T14:23:42.349Z,5.63
2018-07-29T14:26:09.453Z,5.80
2018-07-29T14:28:36.664Z,6.63
2018-07-29T14:31:03.823Z,5.60
2018-07-29T14:33:30.989Z,6.10
2018-07-29T14:35:58.146Z,6.33
2018-07-29T14:38:25.308Z,5.00
2018-07-29T14:40:52.608Z,5.40
2018-07-29T14:43:19.816Z,5.20
2018-07-29T14:45:47.033Z,5.40
2018-07-29T14:48:14.289Z,5.50
2018-07-29T14:50:41.524Z,7.70
2018-07-29T14:53:08.698Z,5.40
2018-07-29T14:55:35.897Z,6.10
2018-07-29T14:58:03.098Z,6.40
2018-07-29T15:00:30.280Z,5.73
2018-07-29T15:02:57.416Z,5.93
2018-07-29T15:05:24.576Z,6.13
2018-07-29T15:07:52.018Z,6.40
2018-07-29T15:10:21.169Z,5.60
2018-07-29T15:12:48.553Z,5.97
2018-07-29T15:15:15.738Z,6.47
2018-07-29T15:17:43.172Z,5.70
2018-07-29T15:20:10.304Z,6.00
2018-07-29T15:22:37.512Z,5.87
2018-07-29T15:25:04.704Z,5.77
2018-07-29T15:27:31.860Z,5.10
2018-07-29T15:29:59.014Z,5.50
2018-07-29T15:32:26.148Z,5.17
2018-07-29T15:34:53.316Z,6.17
2018-07-29T15:37:20.560Z,5.30
2018-07-29T15:39:47.656Z,6.23
2018-07-29T15:42:14.859Z,6.10
2018-07-29T15:44:42.031Z,6.00
2018-07-29T15:47:09.244Z,5.87
2018-07-29T15:49:36.467Z,5.20
2018-07-29T15:52:03.728Z,5.40
2018-07-29T15:54:30.898Z,7.00
2018-07-29T15:56:58.176Z,5.40
2018-07-29T15:59:25.265Z,5.73
2018-07-29T16:01:52.456Z,6.10
2018-07-29T16:04:19.588Z,6.07
2018-07-29T16:06:46.826Z,6.60
2018-07-29T16:09:14.151Z,7.43
2018-07-29T16:11:41.315Z,6.23
2018-07-29T16:14:08.473Z,6.20
2018-07-29T16:16:35.728Z,5.83
2018-07-29T16:19:02.932Z,6.30
2018-07-29T16:21:30.425Z,6.60
2018-07-29T16:23:57.612Z,7.23
2018-07-29T16:26:24.805Z,6.00
2018-07-29T16:28:52.026Z,5.60
2018-07-29T16:31:19.151Z,5.70
2018-07-29T16:33:46.392Z,6.10
2018-07-29T16:36:13.561Z,6.20
2018-07-29T16:38:40.794Z,5.97
2018-07-29T16:41:07.932Z,6.27
2018-07-29T16:43:35.137Z,6.10
2018-07-29T16:46:02.300Z,6.40
2018-07-29T16:48:29.589Z,6.73
2018-07-29T16:50:56.695Z,6.70
2018-07-29T16:53:23.891Z,7.43
2018-07-29T16:55:51.073Z,6.33
2018-07-29T16:58:18.253Z,7.03
2018-07-29T17:00:45.393Z,6.23
2018-07-29T17:03:12.524Z,6.17
2018-07-29T17:05:39.669Z,6.43
2018-07-29T17:08:06.860Z,6.10
2018-07-29T17:10:33.998Z,6.10
2018-07-29T17:13:01.282Z,7.27
2018-07-29T17:15:28.425Z,6.50
2018-07-29T17:17:55.610Z,5.40
2018-07-29T17:20:22.700Z,6.20
2018-07-29T17:22:49.927Z,6.30
2018-07-29T17:25:17.069Z,6.30
2018-07-29T17:27:44.285Z,5.33
2018-07-29T17:30:11.425Z,6.03
2018-07-29T17:32:38.589Z,6.33
2018-07-29T17:35:05.904Z,6.57
2018-07-29T17:37:33.088Z,6.00
2018-07-29T17:40:00.609Z,7.03
2018-07-29T17:42:27.817Z,6.50
2018-07-29T17:44:55.005Z,6.83
2018-07-29T17:47:22.241Z,7.20
2018-07-29T17:49:49.408Z,6.10
2018-07-29T17:52:16.531Z,6.63
2018-07-29T17:54:43.633Z,6.83
2018-07-29T17:57:10.836Z,6.50
2018-07-29T17:59:37.994Z,7.27
2018-07-29T18:02:05.254Z,6.60
2018-07-29T18:04:32.500Z,7.00
2018-07-29T18:06:59.661Z,6.93
2018-07-29T18:09:26.829Z,6.47
2018-07-29T18:11:54.084Z,6.83
2018-07-29T18:14:21.284Z,6.57
2018-07-29T18:16:48.487Z,7.00
2018-07-29T18:19:15.679Z,6.40
2018-07-29T18:21:42.833Z,7.63
2018-07-29T18:24:10.033Z,7.87
2018-07-29T18:26:37.156Z,7.30
2018-07-29T18:29:04.407Z,6.70
2018-07-29T18:31:31.801Z,7.30
2018-07-29T18:46:58.606Z,6.10
2018-07-29T18:49:25.821Z,7.60
2018-07-29T18:51:52.956Z,6.70
2018-07-29T18:54:20.201Z,8.10
2018-07-29T18:56:47.402Z,6.57
2018-07-29T18:59:14.618Z,7.73
2018-07-29T19:01:41.828Z,7.43
2018-07-29T19:04:08.962Z,8.00
2018-07-29T19:06:36.140Z,7.20
2018-07-29T19:09:04.936Z,7.60
2018-07-29T19:11:32.092Z,8.23
2018-07-29T19:13:59.285Z,9.10
2018-07-29T19:16:26.463Z,7.70
2018-07-29T19:18:54.079Z,7.10
2018-07-29T19:21:21.235Z,8.13
2018-07-29T19:23:48.439Z,8.30
2018-07-29T19:26:15.617Z,7.83
2018-07-29T19:28:42.847Z,8.07
2018-07-29T19:31:10.049Z,7.87
2018-07-29T19:33:37.367Z,7.83
2018-07-29T19:36:04.495Z,8.03
2018-07-29T19:38:31.727Z,7.73
2018-07-29T19:40:58.914Z,7.90
2018-07-29T19:43:26.122Z,8.90
2018-07-29T19:45:53.264Z,8.70
2018-07-29T19:48:20.404Z,7.80
2018-07-29T19:50:47.550Z,8.53
2018-07-29T19:53:14.709Z,9.20
2018-07-29T19:55:41.910Z,9.37
2018-07-29T19:58:09.112Z,9.90
2018-07-29T20:00:36.316Z,9.50
2018-07-29T20:03:03.596Z,10.33
2018-07-29T20:05:30.745Z,10.57
2018-07-29T20:07:57.998Z,10.70
2018-07-29T20:10:25.125Z,11.90
2018-07-29T20:12:52.268Z,10.83
2018-07-29T20:15:19.434Z,9.30
2018-07-29T20:17:46.951Z,9.70
2018-07-29T20:20:14.408Z,9.60
2018-07-29T20:22:41.620Z,10.07
2018-07-29T20:25:08.953Z,10.97
2018-07-29T20:27:36.177Z,11.20
2018-07-29T20:30:04.217Z,10.10
2018-07-29T20:32:31.430Z,10.27
2018-07-29T20:34:58.696Z,9.53
2018-07-29T20:37:25.877Z,9.57
2018-07-29T20:39:53.106Z,9.50
2018-07-29T20:42:25.952Z,9.83
2018-07-29T20:44:53.136Z,9.30
2018-07-29T20:47:20.293Z,9.20
2018-07-29T20:49:47.394Z,8.97
2018-07-29T20:52:14.536Z,8.83
2018-07-29T20:54:41.690Z,9.60
2018-07-29T20:57:08.902Z,9.20
2018-07-29T20:59:36.087Z,10.00
2018-07-29T21:02:03.370Z,8.80
2018-07-29T21:04:30.762Z,9.00
2018-07-29T21:06:58.022Z,9.73
2018-07-29T21:09:25.232Z,9.20
2018-07-29T21:11:52.479Z,9.80
2018-07-29T21:14:19.881Z,9.80
2018-07-29T21:16:47.045Z,10.60
2018-07-29T21:19:14.192Z,10.33
2018-07-29T21:21:41.322Z,10.67
2018-07-29T21:24:08.498Z,10.97
2018-07-29T21:26:35.680Z,10.03
2018-07-29T21:29:02.933Z,11.77
2018-07-29T21:31:30.065Z,9.70
2018-07-29T21:33:57.316Z,10.13
2018-07-29T21:36:24.517Z,9.40
2018-07-29T21:38:51.645Z,10.70
2018-07-29T21:41:18.729Z,9.40
2018-07-29T21:43:45.884Z,9.97
2018-07-29T21:46:13.088Z,10.90
2018-07-29T21:48:40.300Z,12.47
2018-07-29T21:51:07.527Z,11.67
2018-07-29T21:53:34.757Z,10.70
2018-07-29T21:56:01.905Z,12.47
2018-07-29T21:58:29.119Z,11.50
2018-07-29T22:00:56.320Z,12.50
2018-07-29T22:03:23.716Z,10.30
2018-07-29T22:05:50.929Z,11.33
2018-07-29T22:08:18.136Z,10.63
2018-07-29T22:10:45.264Z,11.17
2018-07-29T22:13:12.424Z,11.23
2018-07-29T22:15:39.594Z,11.00
2018-07-29T22:18:06.670Z,11.87
2018-07-29T22:20:33.906Z,9.70
2018-07-29T22:23:01.050Z,10.90
2018-07-29T22:25:33.852Z,10.63
2018-07-29T22:28:01.001Z,10.37
2018-07-29T22:30:32.671Z,11.07
2018-07-29T22:32:59.848Z,11.33
2018-07-29T22:35:26.981Z,10.60
2018-07-29T22:37:54.212Z,11.10
2018-07-29T22:40:22.113Z,11.80
2018-07-29T22:42:49.228Z,10.50
2018-07-29T22:45:16.497Z,9.70
2018-07-29T22:47:43.632Z,11.33
2018-07-29T22:50:10.785Z,11.43
2018-07-29T22:52:37.948Z,10.10
2018-07-29T22:55:05.129Z,11.27
2018-07-29T22:57:32.245Z,10.83
2018-07-29T22:59:59.368Z,10.50
2018-07-29T23:02:27.115Z,10.93
2018-07-29T23:04:56.063Z,11.47
2018-07-29T23:07:23.668Z,12.63
2018-07-29T23:10:07.576Z,12.50
2018-07-29T23:12:35.764Z,12.30
2018-07-29T23:15:04.117Z,11.70
2018-07-29T23:17:31.274Z,12.00
2018-07-29T23:19:58.425Z,12.30
2018-07-29T23:22:26.945Z,13.47
2018-07-29T23:24:54.146Z,12.00
2018-07-29T23:27:21.371Z,12.13
2018-07-29T23:29:48.604Z,11.37
2018-07-29T23:32:15.698Z,11.80
2018-07-29T23:34:42.849Z,11.17
2018-07-29T23:37:09.997Z,11.60
2018-07-29T23:39:37.143Z,12.70
2018-07-29T23:42:04.542Z,13.67
2018-07-29T23:44:31.756Z,12.30
2018-07-29T23:46:58.847Z,11.63
2018-07-29T23:49:26.063Z,11.13
2018-07-29T23:51:53.216Z,11.30
2018-07-29T23:54:20.384Z,11.90
2018-07-29T23:56:47.764Z,11.57
2018-07-29T23:59:14.921Z,11.53
